sensor_id;sensor_type;location;lat;lon;timestamp;P1;durP1;ratioP1;P2;durP2;ratioP2
75139;SDS011;63714;55.812;37.658;2022-10-19T00:01:04;6.20;;;2.03;;
75139;SDS011;63714;55.812;37.658;2022-10-19T00:03:31;2.53;;;1.30;;
75139;SDS011;63714;55.812;37.658;2022-10-19T00:05:57;3.40;;;1.50;;
75139;SDS011;63714;55.812;37.658;2022-10-19T00:08:23;3.45;;;1.38;;
75139;SDS011;63714;55.812;37.658;2022-10-19T00:10:49;4.35;;;1.20;;
75139;SDS011;63714;55.812;37.658;2022-10-19T00:13:15;4.70;;;1.60;;
75139;SDS011;63714;55.812;37.658;2022-10-19T00:15:40;3.80;;;1.63;;
75139;SDS011;63714;55.812;37.658;2022-10-19T00:18:06;3.90;;;1.50;;
75139;SDS011;63714;55.812;37.658;2022-10-19T00:20:33;2.42;;;1.35;;
75139;SDS011;63714;55.812;37.658;2022-10-19T00:22:59;6.32;;;2.00;;
75139;SDS011;63714;55.812;37.658;2022-10-19T00:25:25;2.42;;;1.30;;
75139;SDS011;63714;55.812;37.658;2022-10-19T00:27:50;2.72;;;1.25;;
75139;SDS011;63714;55.812;37.658;2022-10-19T00:30:16;2.92;;;1.40;;
75139;SDS011;63714;55.812;37.658;2022-10-19T00:32:41;3.22;;;1.48;;
75139;SDS011;63714;55.812;37.658;2022-10-19T00:35:07;4.78;;;1.50;;
75139;SDS011;63714;55.812;37.658;2022-10-19T00:37:33;2.92;;;1.30;;
75139;SDS011;63714;55.812;37.658;2022-10-19T00:39:59;3.15;;;1.52;;
75139;SDS011;63714;55.812;37.658;2022-10-19T00:42:24;4.18;;;2.00;;
75139;SDS011;63714;55.812;37.658;2022-10-19T00:47:15;3.22;;;1.60;;
75139;SDS011;63714;55.812;37.658;2022-10-19T00:49:44;4.85;;;1.75;;
75139;SDS011;63714;55.812;37.658;2022-10-19T00:52:14;4.55;;;1.92;;
75139;SDS011;63714;55.812;37.658;2022-10-19T00:54:43;4.53;;;1.75;;
75139;SDS011;63714;55.812;37.658;2022-10-19T00:57:11;6.20;;;2.03;;
75139;SDS011;63714;55.812;37.658;2022-10-19T00:59:37;3.50;;;1.33;;
75139;SDS011;63714;55.812;37.658;2022-10-19T01:02:04;6.03;;;2.10;;
75139;SDS011;63714;55.812;37.658;2022-10-19T01:04:31;4.50;;;1.73;;
75139;SDS011;63714;55.812;37.658;2022-10-19T01:06:59;3.38;;;1.50;;
75139;SDS011;63714;55.812;37.658;2022-10-19T01:09:26;5.05;;;1.70;;
75139;SDS011;63714;55.812;37.658;2022-10-19T01:14:46;4.50;;;1.80;;
75139;SDS011;63714;55.812;37.658;2022-10-19T01:31:26;4.95;;;1.77;;
75139;SDS011;63714;55.812;37.658;2022-10-19T01:36:41;3.60;;;1.63;;
75139;SDS011;63714;55.812;37.658;2022-10-19T01:39:56;4.45;;;1.73;;
75139;SDS011;63714;55.812;37.658;2022-10-19T01:42:37;3.85;;;1.60;;
75139;SDS011;63714;55.812;37.658;2022-10-19T01:45:16;3.78;;;1.63;;
75139;SDS011;63714;55.812;37.658;2022-10-19T01:47:47;5.88;;;2.00;;
75139;SDS011;63714;55.812;37.658;2022-10-19T01:53:16;3.33;;;1.58;;
75139;SDS011;63714;55.812;37.658;2022-10-19T01:55:44;2.88;;;1.55;;
75139;SDS011;63714;55.812;37.658;2022-10-19T01:58:15;4.00;;;1.90;;
75139;SDS011;63714;55.812;37.658;2022-10-19T02:00:45;4.30;;;1.52;;
75139;SDS011;63714;55.812;37.658;2022-10-19T02:03:13;4.95;;;1.83;;
75139;SDS011;63714;55.812;37.658;2022-10-19T02:05:40;4.78;;;2.00;;
75139;SDS011;63714;55.812;37.658;2022-10-19T02:08:16;6.30;;;2.00;;
75139;SDS011;63714;55.812;37.658;2022-10-19T02:10:46;3.78;;;1.92;;
75139;SDS011;63714;55.812;37.658;2022-10-19T02:13:13;4.70;;;1.85;;
75139;SDS011;63714;55.812;37.658;2022-10-19T02:16:00;5.93;;;1.90;;
75139;SDS011;63714;55.812;37.658;2022-10-19T02:18:33;2.72;;;1.73;;
75139;SDS011;63714;55.812;37.658;2022-10-19T02:21:04;2.75;;;1.70;;
75139;SDS011;63714;55.812;37.658;2022-10-19T02:23:30;5.38;;;1.98;;
75139;SDS011;63714;55.812;37.658;2022-10-19T02:25:56;5.28;;;1.80;;
75139;SDS011;63714;55.812;37.658;2022-10-19T02:28:22;4.65;;;2.15;;
75139;SDS011;63714;55.812;37.658;2022-10-19T02:30:49;4.63;;;1.90;;
75139;SDS011;63714;55.812;37.658;2022-10-19T02:33:15;5.32;;;2.00;;
75139;SDS011;63714;55.812;37.658;2022-10-19T02:35:40;4.97;;;1.95;;
75139;SDS011;63714;55.812;37.658;2022-10-19T02:38:06;6.45;;;2.00;;
75139;SDS011;63714;55.812;37.658;2022-10-19T02:40:36;5.78;;;1.70;;
75139;SDS011;63714;55.812;37.658;2022-10-19T02:43:04;4.03;;;1.70;;
75139;SDS011;63714;55.812;37.658;2022-10-19T02:45:35;6.53;;;2.00;;
75139;SDS011;63714;55.812;37.658;2022-10-19T02:48:08;6.68;;;2.30;;
75139;SDS011;63714;55.812;37.658;2022-10-19T02:50:44;11.77;;;2.47;;
75139;SDS011;63714;55.812;37.658;2022-10-19T02:53:12;5.88;;;2.03;;
75139;SDS011;63714;55.812;37.658;2022-10-19T02:55:38;6.15;;;2.08;;
75139;SDS011;63714;55.812;37.658;2022-10-19T02:58:04;5.65;;;2.30;;
75139;SDS011;63714;55.812;37.658;2022-10-19T03:00:29;4.60;;;2.22;;
75139;SDS011;63714;55.812;37.658;2022-10-19T03:02:55;4.03;;;2.08;;
75139;SDS011;63714;55.812;37.658;2022-10-19T03:05:21;6.30;;;2.10;;
75139;SDS011;63714;55.812;37.658;2022-10-19T03:07:46;3.85;;;1.52;;
75139;SDS011;63714;55.812;37.658;2022-10-19T03:10:12;3.58;;;1.50;;
75139;SDS011;63714;55.812;37.658;2022-10-19T03:12:37;2.03;;;1.10;;
75139;SDS011;63714;55.812;37.658;2022-10-19T03:15:03;2.55;;;1.58;;
75139;SDS011;63714;55.812;37.658;2022-10-19T03:17:29;2.15;;;1.13;;
75139;SDS011;63714;55.812;37.658;2022-10-19T03:19:54;2.60;;;1.10;;
75139;SDS011;63714;55.812;37.658;2022-10-19T03:22:20;2.20;;;1.20;;
75139;SDS011;63714;55.812;37.658;2022-10-19T03:24:45;2.60;;;0.98;;
75139;SDS011;63714;55.812;37.658;2022-10-19T03:27:11;4.80;;;1.20;;
75139;SDS011;63714;55.812;37.658;2022-10-19T03:29:36;2.88;;;1.10;;
75139;SDS011;63714;55.812;37.658;2022-10-19T03:32:02;3.28;;;1.10;;
75139;SDS011;63714;55.812;37.658;2022-10-19T03:34:28;1.88;;;1.10;;
75139;SDS011;63714;55.812;37.658;2022-10-19T03:36:53;1.85;;;1.10;;
75139;SDS011;63714;55.812;37.658;2022-10-19T03:39:20;2.42;;;1.30;;
75139;SDS011;63714;55.812;37.658;2022-10-19T03:41:46;2.60;;;1.02;;
75139;SDS011;63714;55.812;37.658;2022-10-19T03:44:12;2.97;;;0.90;;
75139;SDS011;63714;55.812;37.658;2022-10-19T03:46:38;1.58;;;0.77;;
75139;SDS011;63714;55.812;37.658;2022-10-19T03:49:04;1.30;;;0.63;;
75139;SDS011;63714;55.812;37.658;2022-10-19T03:51:30;2.13;;;0.80;;
75139;SDS011;63714;55.812;37.658;2022-10-19T03:53:58;1.60;;;0.80;;
75139;SDS011;63714;55.812;37.658;2022-10-19T03:56:25;1.75;;;0.95;;
75139;SDS011;63714;55.812;37.658;2022-10-19T03:58:52;2.28;;;0.90;;
75139;SDS011;63714;55.812;37.658;2022-10-19T04:01:21;1.75;;;0.98;;
75139;SDS011;63714;55.812;37.658;2022-10-19T04:03:54;2.13;;;1.23;;
75139;SDS011;63714;55.812;37.658;2022-10-19T04:06:25;1.95;;;1.15;;
75139;SDS011;63714;55.812;37.658;2022-10-19T04:08:58;4.32;;;1.10;;
75139;SDS011;63714;55.812;37.658;2022-10-19T04:11:26;1.92;;;0.98;;
75139;SDS011;63714;55.812;37.658;2022-10-19T04:13:54;1.48;;;0.98;;
75139;SDS011;63714;55.812;37.658;2022-10-19T04:16:21;2.72;;;1.00;;
75139;SDS011;63714;55.812;37.658;2022-10-19T04:18:48;1.85;;;1.15;;
75139;SDS011;63714;55.812;37.658;2022-10-19T04:21:27;2.78;;;1.52;;
75139;SDS011;63714;55.812;37.658;2022-10-19T04:24:04;2.45;;;0.95;;
75139;SDS011;63714;55.812;37.658;2022-10-19T04:26:32;3.40;;;1.20;;
75139;SDS011;63714;55.812;37.658;2022-10-19T04:28:58;2.80;;;1.23;;
75139;SDS011;63714;55.812;37.658;2022-10-19T04:31:25;2.90;;;1.30;;
75139;SDS011;63714;55.812;37.658;2022-10-19T04:33:52;2.30;;;1.23;;
75139;SDS011;63714;55.812;37.658;2022-10-19T04:36:18;2.83;;;1.63;;
75139;SDS011;63714;55.812;37.658;2022-10-19T04:38:44;3.10;;;1.30;;
75139;SDS011;63714;55.812;37.658;2022-10-19T04:41:11;2.97;;;1.83;;
75139;SDS011;63714;55.812;37.658;2022-10-19T04:46:04;3.13;;;1.52;;
75139;SDS011;63714;55.812;37.658;2022-10-19T04:48:32;3.15;;;1.90;;
75139;SDS011;63714;55.812;37.658;2022-10-19T04:50:59;3.85;;;2.00;;
75139;SDS011;63714;55.812;37.658;2022-10-19T04:53:25;4.47;;;1.98;;
75139;SDS011;63714;55.812;37.658;2022-10-19T04:55:51;3.45;;;1.65;;
75139;SDS011;63714;55.812;37.658;2022-10-19T04:58:16;4.75;;;1.77;;
75139;SDS011;63714;55.812;37.658;2022-10-19T05:00:42;4.53;;;2.38;;
75139;SDS011;63714;55.812;37.658;2022-10-19T05:03:07;5.32;;;1.95;;
75139;SDS011;63714;55.812;37.658;2022-10-19T05:05:33;3.50;;;2.08;;
75139;SDS011;63714;55.812;37.658;2022-10-19T05:07:59;3.55;;;1.73;;
75139;SDS011;63714;55.812;37.658;2022-10-19T05:10:25;2.72;;;1.52;;
75139;SDS011;63714;55.812;37.658;2022-10-19T05:12:50;3.17;;;1.50;;
75139;SDS011;63714;55.812;37.658;2022-10-19T05:15:16;2.58;;;1.40;;
75139;SDS011;63714;55.812;37.658;2022-10-19T05:17:42;2.83;;;1.40;;
75139;SDS011;63714;55.812;37.658;2022-10-19T05:20:08;3.97;;;1.67;;
75139;SDS011;63714;55.812;37.658;2022-10-19T05:22:38;6.30;;;3.35;;
75139;SDS011;63714;55.812;37.658;2022-10-19T05:25:04;4.70;;;1.50;;
75139;SDS011;63714;55.812;37.658;2022-10-19T05:27:31;3.67;;;1.67;;
75139;SDS011;63714;55.812;37.658;2022-10-19T05:29:56;3.20;;;1.40;;
75139;SDS011;63714;55.812;37.658;2022-10-19T05:32:22;2.78;;;1.40;;
75139;SDS011;63714;55.812;37.658;2022-10-19T05:34:47;1.95;;;1.38;;
75139;SDS011;63714;55.812;37.658;2022-10-19T05:37:14;2.42;;;1.25;;
75139;SDS011;63714;55.812;37.658;2022-10-19T05:39:41;3.42;;;1.50;;
75139;SDS011;63714;55.812;37.658;2022-10-19T05:42:07;3.33;;;1.80;;
75139;SDS011;63714;55.812;37.658;2022-10-19T05:44:32;2.67;;;1.70;;
75139;SDS011;63714;55.812;37.658;2022-10-19T05:46:58;2.85;;;1.50;;
75139;SDS011;63714;55.812;37.658;2022-10-19T05:49:25;3.22;;;1.70;;
75139;SDS011;63714;55.812;37.658;2022-10-19T05:51:50;3.05;;;1.63;;
75139;SDS011;63714;55.812;37.658;2022-10-19T05:54:16;2.28;;;1.38;;
75139;SDS011;63714;55.812;37.658;2022-10-19T05:56:43;4.75;;;1.60;;
75139;SDS011;63714;55.812;37.658;2022-10-19T05:59:09;4.60;;;1.58;;
75139;SDS011;63714;55.812;37.658;2022-10-19T06:01:38;3.45;;;1.60;;
75139;SDS011;63714;55.812;37.658;2022-10-19T06:04:04;4.45;;;2.28;;
75139;SDS011;63714;55.812;37.658;2022-10-19T06:06:31;6.05;;;3.83;;
75139;SDS011;63714;55.812;37.658;2022-10-19T06:08:58;3.83;;;2.80;;
75139;SDS011;63714;55.812;37.658;2022-10-19T06:11:30;3.50;;;1.95;;
75139;SDS011;63714;55.812;37.658;2022-10-19T06:13:59;3.28;;;1.70;;
75139;SDS011;63714;55.812;37.658;2022-10-19T06:16:27;2.78;;;1.90;;
75139;SDS011;63714;55.812;37.658;2022-10-19T06:18:53;2.90;;;2.00;;
75139;SDS011;63714;55.812;37.658;2022-10-19T06:21:21;3.65;;;2.15;;
75139;SDS011;63714;55.812;37.658;2022-10-19T06:23:51;5.50;;;2.60;;
75139;SDS011;63714;55.812;37.658;2022-10-19T06:26:18;11.13;;;3.20;;
75139;SDS011;63714;55.812;37.658;2022-10-19T06:28:44;5.15;;;2.58;;
75139;SDS011;63714;55.812;37.658;2022-10-19T06:31:11;5.15;;;2.88;;
75139;SDS011;63714;55.812;37.658;2022-10-19T06:33:38;5.43;;;3.00;;
75139;SDS011;63714;55.812;37.658;2022-10-19T06:36:11;4.45;;;3.30;;
75139;SDS011;63714;55.812;37.658;2022-10-19T06:38:40;4.90;;;2.97;;
75139;SDS011;63714;55.812;37.658;2022-10-19T06:41:07;4.60;;;2.90;;
75139;SDS011;63714;55.812;37.658;2022-10-19T06:43:33;5.28;;;3.10;;
75139;SDS011;63714;55.812;37.658;2022-10-19T06:46:06;6.45;;;3.28;;
75139;SDS011;63714;55.812;37.658;2022-10-19T06:48:34;5.80;;;3.33;;
75139;SDS011;63714;55.812;37.658;2022-10-19T06:51:00;4.18;;;3.13;;
75139;SDS011;63714;55.812;37.658;2022-10-19T06:53:28;5.13;;;3.50;;
75139;SDS011;63714;55.812;37.658;2022-10-19T06:55:58;6.57;;;3.55;;
75139;SDS011;63714;55.812;37.658;2022-10-19T06:58:24;7.75;;;3.67;;
75139;SDS011;63714;55.812;37.658;2022-10-19T07:00:56;6.28;;;3.85;;
75139;SDS011;63714;55.812;37.658;2022-10-19T07:03:24;6.53;;;3.72;;
75139;SDS011;63714;55.812;37.658;2022-10-19T07:05:58;5.18;;;3.70;;
75139;SDS011;63714;55.812;37.658;2022-10-19T07:08:25;4.93;;;3.47;;
75139;SDS011;63714;55.812;37.658;2022-10-19T07:10:55;5.05;;;3.47;;
75139;SDS011;63714;55.812;37.658;2022-10-19T07:13:23;6.07;;;3.72;;
75139;SDS011;63714;55.812;37.658;2022-10-19T07:15:49;5.72;;;4.07;;
75139;SDS011;63714;55.812;37.658;2022-10-19T07:18:20;5.63;;;2.95;;
75139;SDS011;63714;55.812;37.658;2022-10-19T07:20:55;5.95;;;3.10;;
75139;SDS011;63714;55.812;37.658;2022-10-19T07:23:23;5.10;;;3.03;;
75139;SDS011;63714;55.812;37.658;2022-10-19T07:25:50;5.60;;;3.00;;
75139;SDS011;63714;55.812;37.658;2022-10-19T07:28:17;5.88;;;3.80;;
75139;SDS011;63714;55.812;37.658;2022-10-19T07:30:44;5.97;;;3.33;;
75139;SDS011;63714;55.812;37.658;2022-10-19T07:33:09;5.10;;;3.35;;
75139;SDS011;63714;55.812;37.658;2022-10-19T07:35:35;5.25;;;3.08;;
75139;SDS011;63714;55.812;37.658;2022-10-19T07:38:01;5.20;;;3.22;;
75139;SDS011;63714;55.812;37.658;2022-10-19T07:40:26;4.57;;;3.30;;
75139;SDS011;63714;55.812;37.658;2022-10-19T07:42:52;5.75;;;3.25;;
75139;SDS011;63714;55.812;37.658;2022-10-19T07:45:18;10.13;;;5.00;;
75139;SDS011;63714;55.812;37.658;2022-10-19T07:47:43;5.85;;;3.40;;
75139;SDS011;63714;55.812;37.658;2022-10-19T07:50:09;6.47;;;3.80;;
75139;SDS011;63714;55.812;37.658;2022-10-19T07:52:34;5.90;;;3.10;;
75139;SDS011;63714;55.812;37.658;2022-10-19T07:55:00;6.00;;;3.60;;
75139;SDS011;63714;55.812;37.658;2022-10-19T07:57:26;6.25;;;3.63;;
75139;SDS011;63714;55.812;37.658;2022-10-19T07:59:51;6.55;;;3.40;;
75139;SDS011;63714;55.812;37.658;2022-10-19T08:02:17;6.53;;;4.18;;
75139;SDS011;63714;55.812;37.658;2022-10-19T08:04:44;6.10;;;3.75;;
75139;SDS011;63714;55.812;37.658;2022-10-19T08:07:09;6.05;;;3.85;;
75139;SDS011;63714;55.812;37.658;2022-10-19T08:09:35;6.10;;;3.80;;
75139;SDS011;63714;55.812;37.658;2022-10-19T08:12:01;5.32;;;3.80;;
75139;SDS011;63714;55.812;37.658;2022-10-19T08:14:28;5.50;;;3.33;;
75139;SDS011;63714;55.812;37.658;2022-10-19T08:16:54;7.15;;;3.60;;
75139;SDS011;63714;55.812;37.658;2022-10-19T08:19:19;6.82;;;3.53;;
75139;SDS011;63714;55.812;37.658;2022-10-19T08:21:46;7.93;;;4.07;;
75139;SDS011;63714;55.812;37.658;2022-10-19T08:24:13;8.57;;;4.03;;
75139;SDS011;63714;55.812;37.658;2022-10-19T08:26:40;11.75;;;4.43;;
75139;SDS011;63714;55.812;37.658;2022-10-19T08:29:07;6.07;;;3.72;;
75139;SDS011;63714;55.812;37.658;2022-10-19T08:31:37;5.63;;;3.35;;
75139;SDS011;63714;55.812;37.658;2022-10-19T08:34:03;5.75;;;3.13;;
75139;SDS011;63714;55.812;37.658;2022-10-19T08:36:28;8.15;;;3.05;;
75139;SDS011;63714;55.812;37.658;2022-10-19T08:38:59;4.50;;;3.25;;
75139;SDS011;63714;55.812;37.658;2022-10-19T08:49:15;5.93;;;3.53;;
75139;SDS011;63714;55.812;37.658;2022-10-19T08:51:45;7.07;;;3.92;;
75139;SDS011;63714;55.812;37.658;2022-10-19T08:54:59;6.70;;;3.92;;
75139;SDS011;63714;55.812;37.658;2022-10-19T09:00:18;6.57;;;3.70;;
75139;SDS011;63714;55.812;37.658;2022-10-19T09:03:06;6.20;;;3.55;;
75139;SDS011;63714;55.812;37.658;2022-10-19T09:05:46;6.18;;;3.35;;
75139;SDS011;63714;55.812;37.658;2022-10-19T09:08:13;4.93;;;2.95;;
75139;SDS011;63714;55.812;37.658;2022-10-19T09:10:42;5.25;;;2.80;;
75139;SDS011;63714;55.812;37.658;2022-10-19T09:15:56;7.45;;;3.10;;
75139;SDS011;63714;55.812;37.658;2022-10-19T09:20:54;8.65;;;4.22;;
75139;SDS011;63714;55.812;37.658;2022-10-19T09:23:29;5.93;;;3.35;;
75139;SDS011;63714;55.812;37.658;2022-10-19T09:25:55;5.07;;;3.20;;
75139;SDS011;63714;55.812;37.658;2022-10-19T09:30:47;6.25;;;3.42;;
75139;SDS011;63714;55.812;37.658;2022-10-19T09:33:23;7.70;;;3.03;;
75139;SDS011;63714;55.812;37.658;2022-10-19T09:35:53;6.35;;;3.08;;
75139;SDS011;63714;55.812;37.658;2022-10-19T09:38:21;4.82;;;2.70;;
75139;SDS011;63714;55.812;37.658;2022-10-19T09:40:51;5.18;;;3.20;;
75139;SDS011;63714;55.812;37.658;2022-10-19T09:43:16;4.75;;;2.58;;
75139;SDS011;63714;55.812;37.658;2022-10-19T09:48:27;5.55;;;3.00;;
75139;SDS011;63714;55.812;37.658;2022-10-19T09:51:15;4.68;;;2.88;;
75139;SDS011;63714;55.812;37.658;2022-10-19T09:53:51;4.40;;;2.50;;
75139;SDS011;63714;55.812;37.658;2022-10-19T09:56:22;3.20;;;1.98;;
75139;SDS011;63714;55.812;37.658;2022-10-19T09:58:52;4.80;;;2.40;;
75139;SDS011;63714;55.812;37.658;2022-10-19T10:03:53;3.97;;;2.45;;
75139;SDS011;63714;55.812;37.658;2022-10-19T10:06:33;4.13;;;1.98;;
75139;SDS011;63714;55.812;37.658;2022-10-19T10:08:59;5.63;;;2.20;;
75139;SDS011;63714;55.812;37.658;2022-10-19T10:11:29;9.05;;;5.10;;
75139;SDS011;63714;55.812;37.658;2022-10-19T10:13:58;5.40;;;2.55;;
75139;SDS011;63714;55.812;37.658;2022-10-19T10:16:32;3.85;;;2.50;;
75139;SDS011;63714;55.812;37.658;2022-10-19T10:19:05;4.03;;;2.58;;
75139;SDS011;63714;55.812;37.658;2022-10-19T10:21:51;3.60;;;3.10;;
75139;SDS011;63714;55.812;37.658;2022-10-19T10:24:39;5.00;;;2.70;;
75139;SDS011;63714;55.812;37.658;2022-10-19T10:27:24;7.38;;;3.35;;
75139;SDS011;63714;55.812;37.658;2022-10-19T10:29:57;6.32;;;3.58;;
75139;SDS011;63714;55.812;37.658;2022-10-19T10:32:23;6.07;;;3.58;;
75139;SDS011;63714;55.812;37.658;2022-10-19T10:34:57;9.80;;;5.38;;
75139;SDS011;63714;55.812;37.658;2022-10-19T10:37:39;8.48;;;5.28;;
75139;SDS011;63714;55.812;37.658;2022-10-19T10:40:15;5.07;;;3.50;;
75139;SDS011;63714;55.812;37.658;2022-10-19T10:42:46;5.00;;;3.40;;
75139;SDS011;63714;55.812;37.658;2022-10-19T10:47:51;7.53;;;3.58;;
75139;SDS011;63714;55.812;37.658;2022-10-19T10:50:21;4.63;;;3.60;;
75139;SDS011;63714;55.812;37.658;2022-10-19T10:53:00;4.43;;;2.65;;
75139;SDS011;63714;55.812;37.658;2022-10-19T10:55:28;4.93;;;3.25;;
75139;SDS011;63714;55.812;37.658;2022-10-19T10:58:08;6.18;;;3.60;;
75139;SDS011;63714;55.812;37.658;2022-10-19T11:00:40;9.73;;;6.07;;
75139;SDS011;63714;55.812;37.658;2022-10-19T11:08:17;6.07;;;3.20;;
75139;SDS011;63714;55.812;37.658;2022-10-19T11:13:47;5.13;;;2.97;;
75139;SDS011;63714;55.812;37.658;2022-10-19T11:16:22;5.50;;;3.75;;
75139;SDS011;63714;55.812;37.658;2022-10-19T11:19:19;7.75;;;3.03;;
75139;SDS011;63714;55.812;37.658;2022-10-19T11:27:23;5.13;;;2.83;;
75139;SDS011;63714;55.812;37.658;2022-10-19T11:30:14;2.83;;;2.00;;
75139;SDS011;63714;55.812;37.658;2022-10-19T11:40:53;3.10;;;2.17;;
75139;SDS011;63714;55.812;37.658;2022-10-19T11:46:21;10.13;;;4.43;;
75139;SDS011;63714;55.812;37.658;2022-10-19T11:56:53;3.85;;;2.40;;
75139;SDS011;63714;55.812;37.658;2022-10-19T12:04:45;6.00;;;2.35;;
75139;SDS011;63714;55.812;37.658;2022-10-19T12:12:55;5.20;;;2.60;;
75139;SDS011;63714;55.812;37.658;2022-10-19T12:17:51;5.60;;;2.65;;
75139;SDS011;63714;55.812;37.658;2022-10-19T12:25:59;4.85;;;2.60;;
75139;SDS011;63714;55.812;37.658;2022-10-19T12:28:28;5.45;;;2.72;;
75139;SDS011;63714;55.812;37.658;2022-10-19T12:30:56;3.60;;;2.70;;
75139;SDS011;63714;55.812;37.658;2022-10-19T12:36:18;5.50;;;4.20;;
75139;SDS011;63714;55.812;37.658;2022-10-19T12:47:05;5.05;;;3.00;;
75139;SDS011;63714;55.812;37.658;2022-10-19T12:49:36;3.30;;;2.42;;
75139;SDS011;63714;55.812;37.658;2022-10-19T12:52:08;4.85;;;2.78;;
75139;SDS011;63714;55.812;37.658;2022-10-19T12:54:35;4.47;;;2.70;;
75139;SDS011;63714;55.812;37.658;2022-10-19T12:57:17;4.28;;;2.55;;
75139;SDS011;63714;55.812;37.658;2022-10-19T12:59:46;5.22;;;2.63;;
75139;SDS011;63714;55.812;37.658;2022-10-19T13:02:35;4.80;;;2.90;;
75139;SDS011;63714;55.812;37.658;2022-10-19T13:05:03;6.40;;;3.03;;
75139;SDS011;63714;55.812;37.658;2022-10-19T13:07:29;6.20;;;3.28;;
75139;SDS011;63714;55.812;37.658;2022-10-19T13:09:59;5.68;;;2.78;;
75139;SDS011;63714;55.812;37.658;2022-10-19T13:12:27;5.05;;;3.17;;
75139;SDS011;63714;55.812;37.658;2022-10-19T13:22:39;4.28;;;2.65;;
75139;SDS011;63714;55.812;37.658;2022-10-19T13:27:41;8.93;;;5.25;;
75139;SDS011;63714;55.812;37.658;2022-10-19T13:38:43;6.25;;;2.90;;
75139;SDS011;63714;55.812;37.658;2022-10-19T13:41:13;3.83;;;1.85;;
75139;SDS011;63714;55.812;37.658;2022-10-19T13:50:18;4.00;;;1.95;;
75139;SDS011;63714;55.812;37.658;2022-10-19T14:06:57;4.13;;;2.03;;
75139;SDS011;63714;55.812;37.658;2022-10-19T14:12:23;7.80;;;3.90;;
75139;SDS011;63714;55.812;37.658;2022-10-19T14:14:50;4.45;;;2.58;;
75139;SDS011;63714;55.812;37.658;2022-10-19T14:17:20;4.68;;;2.50;;
75139;SDS011;63714;55.812;37.658;2022-10-19T14:19:53;5.53;;;2.30;;
75139;SDS011;63714;55.812;37.658;2022-10-19T14:22:30;3.97;;;2.03;;
75139;SDS011;63714;55.812;37.658;2022-10-19T14:27:29;6.13;;;2.97;;
75139;SDS011;63714;55.812;37.658;2022-10-19T14:29:55;4.78;;;2.65;;
75139;SDS011;63714;55.812;37.658;2022-10-19T14:32:22;5.00;;;2.38;;
75139;SDS011;63714;55.812;37.658;2022-10-19T14:34:50;3.95;;;2.17;;
75139;SDS011;63714;55.812;37.658;2022-10-19T14:37:23;4.32;;;2.30;;
75139;SDS011;63714;55.812;37.658;2022-10-19T14:42:49;6.45;;;2.20;;
75139;SDS011;63714;55.812;37.658;2022-10-19T14:45:18;4.22;;;2.38;;
75139;SDS011;63714;55.812;37.658;2022-10-19T14:48:20;4.22;;;1.85;;
75139;SDS011;63714;55.812;37.658;2022-10-19T14:53:32;4.93;;;2.13;;
75139;SDS011;63714;55.812;37.658;2022-10-19T14:56:23;5.78;;;1.90;;
75139;SDS011;63714;55.812;37.658;2022-10-19T14:59:00;5.57;;;2.53;;
75139;SDS011;63714;55.812;37.658;2022-10-19T15:03:56;7.30;;;2.13;;
75139;SDS011;63714;55.812;37.658;2022-10-19T15:06:23;11.93;;;4.38;;
75139;SDS011;63714;55.812;37.658;2022-10-19T15:08:55;4.38;;;2.13;;
75139;SDS011;63714;55.812;37.658;2022-10-19T15:11:25;4.38;;;2.20;;
75139;SDS011;63714;55.812;37.658;2022-10-19T15:13:54;5.57;;;2.08;;
75139;SDS011;63714;55.812;37.658;2022-10-19T15:19:17;5.50;;;2.15;;
75139;SDS011;63714;55.812;37.658;2022-10-19T15:24:38;4.60;;;2.20;;
75139;SDS011;63714;55.812;37.658;2022-10-19T15:27:30;7.75;;;2.45;;
75139;SDS011;63714;55.812;37.658;2022-10-19T15:35:37;6.82;;;2.20;;
75139;SDS011;63714;55.812;37.658;2022-10-19T15:38:22;3.88;;;2.17;;
75139;SDS011;63714;55.812;37.658;2022-10-19T15:40:55;4.72;;;2.30;;
75139;SDS011;63714;55.812;37.658;2022-10-19T15:46:01;4.85;;;2.42;;
75139;SDS011;63714;55.812;37.658;2022-10-19T15:53:56;5.53;;;1.90;;
75139;SDS011;63714;55.812;37.658;2022-10-19T15:56:24;5.85;;;2.03;;
75139;SDS011;63714;55.812;37.658;2022-10-19T15:58:51;5.03;;;2.10;;
75139;SDS011;63714;55.812;37.658;2022-10-19T16:01:23;6.38;;;2.33;;
75139;SDS011;63714;55.812;37.658;2022-10-19T16:03:51;5.80;;;2.70;;
75139;SDS011;63714;55.812;37.658;2022-10-19T16:06:17;4.93;;;2.20;;
75139;SDS011;63714;55.812;37.658;2022-10-19T16:08:44;4.75;;;2.00;;
75139;SDS011;63714;55.812;37.658;2022-10-19T16:11:11;4.32;;;2.00;;
75139;SDS011;63714;55.812;37.658;2022-10-19T16:13:38;5.38;;;2.05;;
75139;SDS011;63714;55.812;37.658;2022-10-19T16:16:04;3.50;;;1.80;;
75139;SDS011;63714;55.812;37.658;2022-10-19T16:18:31;6.82;;;2.03;;
75139;SDS011;63714;55.812;37.658;2022-10-19T16:20:56;4.00;;;1.88;;
75139;SDS011;63714;55.812;37.658;2022-10-19T16:23:22;6.38;;;2.85;;
75139;SDS011;63714;55.812;37.658;2022-10-19T16:25:48;6.63;;;4.15;;
75139;SDS011;63714;55.812;37.658;2022-10-19T16:28:14;7.32;;;3.38;;
75139;SDS011;63714;55.812;37.658;2022-10-19T16:30:40;5.80;;;2.97;;
75139;SDS011;63714;55.812;37.658;2022-10-19T16:33:06;6.68;;;2.70;;
75139;SDS011;63714;55.812;37.658;2022-10-19T16:35:32;5.35;;;2.72;;
75139;SDS011;63714;55.812;37.658;2022-10-19T16:37:57;7.32;;;3.10;;
75139;SDS011;63714;55.812;37.658;2022-10-19T16:40:23;6.85;;;2.65;;
75139;SDS011;63714;55.812;37.658;2022-10-19T16:42:49;4.07;;;2.22;;
75139;SDS011;63714;55.812;37.658;2022-10-19T16:45:15;4.50;;;2.15;;
75139;SDS011;63714;55.812;37.658;2022-10-19T16:47:41;4.30;;;2.10;;
75139;SDS011;63714;55.812;37.658;2022-10-19T16:50:07;4.60;;;2.13;;
75139;SDS011;63714;55.812;37.658;2022-10-19T16:52:34;6.63;;;2.03;;
75139;SDS011;63714;55.812;37.658;2022-10-19T16:54:59;5.70;;;2.60;;
75139;SDS011;63714;55.812;37.658;2022-10-19T16:57:25;3.67;;;2.10;;
75139;SDS011;63714;55.812;37.658;2022-10-19T16:59:51;6.97;;;2.45;;
75139;SDS011;63714;55.812;37.658;2022-10-19T17:02:18;6.47;;;2.35;;
75139;SDS011;63714;55.812;37.658;2022-10-19T17:04:45;5.70;;;2.63;;
75139;SDS011;63714;55.812;37.658;2022-10-19T17:07:10;6.97;;;2.53;;
75139;SDS011;63714;55.812;37.658;2022-10-19T17:09:37;5.57;;;2.10;;
75139;SDS011;63714;55.812;37.658;2022-10-19T17:12:03;5.00;;;2.25;;
75139;SDS011;63714;55.812;37.658;2022-10-19T17:14:30;6.32;;;2.58;;
75139;SDS011;63714;55.812;37.658;2022-10-19T17:16:55;3.03;;;1.88;;
75139;SDS011;63714;55.812;37.658;2022-10-19T17:19:21;4.70;;;2.08;;
75139;SDS011;63714;55.812;37.658;2022-10-19T17:21:47;7.55;;;2.50;;
75139;SDS011;63714;55.812;37.658;2022-10-19T17:24:14;3.90;;;1.90;;
75139;SDS011;63714;55.812;37.658;2022-10-19T17:26:42;7.10;;;2.40;;
75139;SDS011;63714;55.812;37.658;2022-10-19T17:29:09;3.78;;;2.13;;
75139;SDS011;63714;55.812;37.658;2022-10-19T17:31:36;4.75;;;1.88;;
75139;SDS011;63714;55.812;37.658;2022-10-19T17:34:03;4.05;;;1.73;;
75139;SDS011;63714;55.812;37.658;2022-10-19T17:36:30;2.67;;;1.52;;
75139;SDS011;63714;55.812;37.658;2022-10-19T17:38:58;2.67;;;1.50;;
75139;SDS011;63714;55.812;37.658;2022-10-19T17:41:26;4.57;;;1.73;;
75139;SDS011;63714;55.812;37.658;2022-10-19T17:43:52;4.20;;;2.10;;
75139;SDS011;63714;55.812;37.658;2022-10-19T17:46:19;3.50;;;1.63;;
75139;SDS011;63714;55.812;37.658;2022-10-19T17:48:47;5.20;;;1.80;;
75139;SDS011;63714;55.812;37.658;2022-10-19T17:51:14;3.55;;;1.98;;
75139;SDS011;63714;55.812;37.658;2022-10-19T17:53:43;3.72;;;1.90;;